sensor_id;sensor_type;location;lat;lon;timestamp;pressure;altitude;pressure_sealevel;temperature;humidity
21638;BME280;10980;49.596;6.142;2023-03-15T00:01:13;98162.06;;;0.55;100.00
21638;BME280;10980;49.596;6.142;2023-03-15T00:04:35;98176.72;;;0.57;100.00
21638;BME280;10980;49.596;6.142;2023-03-15T00:07:58;98186.78;;;0.65;100.00
21638;BME280;10980;49.596;6.142;2023-03-15T00:11:20;98185.84;;;0.82;100.00
21638;BME280;10980;49.596;6.142;2023-03-15T00:14:45;98182.38;;;0.97;100.00
21638;BME280;10980;49.596;6.142;2023-03-15T00:18:06;98190.56;;;1.23;100.00
21638;BME280;10980;49.596;6.142;2023-03-15T00:21:28;98194.22;;;1.50;100.00
21638;BME280;10980;49.596;6.142;2023-03-15T00:24:54;98196.81;;;1.80;100.00
21638;BME280;10980;49.596;6.142;2023-03-15T00:28:16;98200.13;;;2.12;100.00
21638;BME280;10980;49.596;6.142;2023-03-15T00:31:38;98204.25;;;2.30;100.00
21638;BME280;10980;49.596;6.142;2023-03-15T00:35:00;98207.63;;;2.47;100.00
21638;BME280;10980;49.596;6.142;2023-03-15T00:38:22;98206.13;;;2.43;100.00
21638;BME280;10980;49.596;6.142;2023-03-15T00:41:54;98215.28;;;2.35;100.00
21638;BME280;10980;49.596;6.142;2023-03-15T00:45:27;98225.78;;;2.35;100.00
21638;BME280;10980;49.596;6.142;2023-03-15T00:48:50;98222.22;;;2.51;100.00
21638;BME280;10980;49.596;6.142;2023-03-15T00:52:13;98208.00;;;2.55;100.00
21638;BME280;10980;49.596;6.142;2023-03-15T00:55:36;98216.31;;;2.61;100.00
21638;BME280;10980;49.596;6.142;2023-03-15T00:59:00;98224.69;;;2.54;100.00
21638;BME280;10980;49.596;6.142;2023-03-15T01:02:26;98215.88;;;2.55;100.00
21638;BME280;10980;49.596;6.142;2023-03-15T01:05:49;98216.22;;;2.63;100.00
21638;BME280;10980;49.596;6.142;2023-03-15T01:09:11;98222.63;;;2.59;100.00
21638;BME280;10980;49.596;6.142;2023-03-15T01:12:37;98217.91;;;2.64;100.00
21638;BME280;10980;49.596;6.142;2023-03-15T01:15:59;98220.34;;;2.53;100.00
21638;BME280;10980;49.596;6.142;2023-03-15T01:19:21;98221.47;;;2.34;100.00
21638;BME280;10980;49.596;6.142;2023-03-15T01:22:42;98214.19;;;2.11;100.00
21638;BME280;10980;49.596;6.142;2023-03-15T01:26:20;98225.72;;;1.93;100.00
21638;BME280;10980;49.596;6.142;2023-03-15T01:29:44;98224.47;;;1.70;100.00
21638;BME280;10980;49.596;6.142;2023-03-15T01:33:10;98223.25;;;1.75;100.00
21638;BME280;10980;49.596;6.142;2023-03-15T01:36:38;98218.09;;;2.04;100.00
21638;BME280;10980;49.596;6.142;2023-03-15T01:40:15;98218.50;;;2.26;100.00
21638;BME280;10980;49.596;6.142;2023-03-15T01:43:40;98225.63;;;2.24;100.00
21638;BME280;10980;49.596;6.142;2023-03-15T01:47:08;98220.72;;;2.18;100.00
21638;BME280;10980;49.596;6.142;2023-03-15T01:50:30;98221.44;;;2.06;100.00
21638;BME280;10980;49.596;6.142;2023-03-15T01:54:18;98238.88;;;2.07;100.00
21638;BME280;10980;49.596;6.142;2023-03-15T01:57:55;98228.75;;;2.01;100.00
21638;BME280;10980;49.596;6.142;2023-03-15T02:01:22;98237.13;;;1.77;100.00
21638;BME280;10980;49.596;6.142;2023-03-15T02:05:06;98248.19;;;1.53;100.00
21638;BME280;10980;49.596;6.142;2023-03-15T02:08:41;98246.53;;;1.36;100.00
21638;BME280;10980;49.596;6.142;2023-03-15T02:12:08;98242.47;;;1.30;100.00
21638;BME280;10980;49.596;6.142;2023-03-15T02:15:34;98238.41;;;1.40;100.00
21638;BME280;10980;49.596;6.142;2023-03-15T02:19:06;98236.22;;;1.33;100.00
21638;BME280;10980;49.596;6.142;2023-03-15T02:26:34;98231.00;;;1.01;100.00
21638;BME280;10980;49.596;6.142;2023-03-15T02:30:03;98223.84;;;1.21;100.00
21638;BME280;10980;49.596;6.142;2023-03-15T02:33:51;98228.47;;;1.15;100.00
21638;BME280;10980;49.596;6.142;2023-03-15T02:37:15;98233.41;;;0.90;100.00
21638;BME280;10980;49.596;6.142;2023-03-15T02:40:37;98236.31;;;0.84;100.00
21638;BME280;10980;49.596;6.142;2023-03-15T02:44:33;98237.75;;;0.74;100.00
21638;BME280;10980;49.596;6.142;2023-03-15T02:47:58;98238.94;;;0.68;100.00
21638;BME280;10980;49.596;6.142;2023-03-15T02:51:24;98242.41;;;0.69;100.00
21638;BME280;10980;49.596;6.142;2023-03-15T02:54:51;98225.28;;;0.63;100.00
21638;BME280;10980;49.596;6.142;2023-03-15T02:58:23;98238.00;;;0.69;100.00
21638;BME280;10980;49.596;6.142;2023-03-15T03:01:51;98232.69;;;0.86;100.00
21638;BME280;10980;49.596;6.142;2023-03-15T03:05:20;98243.78;;;0.92;100.00
21638;BME280;10980;49.596;6.142;2023-03-15T03:08:55;98250.25;;;0.84;100.00
21638;BME280;10980;49.596;6.142;2023-03-15T03:12:18;98253.88;;;0.82;100.00
21638;BME280;10980;49.596;6.142;2023-03-15T03:15:39;98246.78;;;0.68;100.00
21638;BME280;10980;49.596;6.142;2023-03-15T03:19:09;98244.19;;;0.84;100.00
21638;BME280;10980;49.596;6.142;2023-03-15T03:22:35;98244.09;;;0.85;100.00
21638;BME280;10980;49.596;6.142;2023-03-15T03:26:15;98236.91;;;0.89;100.00
21638;BME280;10980;49.596;6.142;2023-03-15T03:29:40;98236.59;;;0.95;100.00
21638;BME280;10980;49.596;6.142;2023-03-15T03:33:04;98250.00;;;0.89;100.00
21638;BME280;10980;49.596;6.142;2023-03-15T03:36:26;98239.78;;;0.84;100.00
21638;BME280;10980;49.596;6.142;2023-03-15T03:39:58;98244.75;;;0.73;100.00
21638;BME280;10980;49.596;6.142;2023-03-15T03:43:26;98255.94;;;0.59;100.00
21638;BME280;10980;49.596;6.142;2023-03-15T03:46:48;98259.50;;;0.58;100.00
21638;BME280;10980;49.596;6.142;2023-03-15T03:50:11;98260.69;;;0.53;100.00
21638;BME280;10980;49.596;6.142;2023-03-15T03:53:39;98257.81;;;0.57;100.00
21638;BME280;10980;49.596;6.142;2023-03-15T03:57:01;98271.50;;;0.63;100.00
21638;BME280;10980;49.596;6.142;2023-03-15T04:00:28;98263.78;;;0.77;100.00
21638;BME280;10980;49.596;6.142;2023-03-15T04:03:54;98268.31;;;0.89;100.00
21638;BME280;10980;49.596;6.142;2023-03-15T04:07:19;98266.22;;;1.11;100.00
21638;BME280;10980;49.596;6.142;2023-03-15T04:10:41;98269.50;;;1.31;100.00
21638;BME280;10980;49.596;6.142;2023-03-15T04:14:04;98269.00;;;1.40;100.00
21638;BME280;10980;49.596;6.142;2023-03-15T04:17:41;98276.91;;;1.54;100.00
21638;BME280;10980;49.596;6.142;2023-03-15T04:21:03;98266.09;;;1.60;100.00
21638;BME280;10980;49.596;6.142;2023-03-15T04:24:25;98276.97;;;1.68;100.00
21638;BME280;10980;49.596;6.142;2023-03-15T04:28:01;98276.13;;;1.68;100.00
21638;BME280;10980;49.596;6.142;2023-03-15T04:31:40;98280.41;;;1.85;100.00
21638;BME280;10980;49.596;6.142;2023-03-15T04:35:13;98283.44;;;2.07;100.00
21638;BME280;10980;49.596;6.142;2023-03-15T04:38:54;98289.28;;;2.12;100.00
21638;BME280;10980;49.596;6.142;2023-03-15T04:43:04;98301.94;;;2.20;100.00
21638;BME280;10980;49.596;6.142;2023-03-15T04:46:33;98303.09;;;2.30;100.00
21638;BME280;10980;49.596;6.142;2023-03-15T04:50:12;98306.75;;;2.42;100.00
21638;BME280;10980;49.596;6.142;2023-03-15T04:53:57;98326.94;;;2.55;100.00
21638;BME280;10980;49.596;6.142;2023-03-15T04:57:30;98334.44;;;2.61;100.00
21638;BME280;10980;49.596;6.142;2023-03-15T05:01:16;98340.50;;;2.62;100.00
21638;BME280;10980;49.596;6.142;2023-03-15T05:04:59;98322.81;;;2.80;100.00
21638;BME280;10980;49.596;6.142;2023-03-15T05:08:55;98331.91;;;2.88;100.00
21638;BME280;10980;49.596;6.142;2023-03-15T05:12:38;98326.00;;;2.85;100.00
21638;BME280;10980;49.596;6.142;2023-03-15T05:16:16;98311.47;;;2.79;100.00
21638;BME280;10980;49.596;6.142;2023-03-15T05:19:53;98305.09;;;2.83;100.00
21638;BME280;10980;49.596;6.142;2023-03-15T05:23:22;98303.22;;;2.85;100.00
21638;BME280;10980;49.596;6.142;2023-03-15T05:27:29;98298.72;;;2.87;100.00
21638;BME280;10980;49.596;6.142;2023-03-15T05:31:05;98298.91;;;2.84;100.00
21638;BME280;10980;49.596;6.142;2023-03-15T05:34:52;98295.44;;;2.84;100.00
21638;BME280;10980;49.596;6.142;2023-03-15T05:38:47;98298.53;;;2.90;100.00
21638;BME280;10980;49.596;6.142;2023-03-15T05:42:27;98295.13;;;3.03;100.00
21638;BME280;10980;49.596;6.142;2023-03-15T05:46:08;98310.59;;;3.07;100.00
21638;BME280;10980;49.596;6.142;2023-03-15T05:49:59;98310.97;;;3.15;100.00
21638;BME280;10980;49.596;6.142;2023-03-15T05:53:48;98317.81;;;3.18;100.00
21638;BME280;10980;49.596;6.142;2023-03-15T05:57:28;98323.53;;;3.24;100.00
21638;BME280;10980;49.596;6.142;2023-03-15T06:01:06;98327.38;;;3.33;100.00
21638;BME280;10980;49.596;6.142;2023-03-15T06:04:57;98329.69;;;3.38;100.00
21638;BME280;10980;49.596;6.142;2023-03-15T06:08:32;98328.06;;;3.49;100.00
21638;BME280;10980;49.596;6.142;2023-03-15T06:12:05;98328.34;;;3.59;100.00
21638;BME280;10980;49.596;6.142;2023-03-15T06:15:27;98332.47;;;3.63;100.00
21638;BME280;10980;49.596;6.142;2023-03-15T06:18:50;98347.28;;;3.64;100.00
21638;BME280;10980;49.596;6.142;2023-03-15T06:22:12;98339.56;;;3.75;100.00
21638;BME280;10980;49.596;6.142;2023-03-15T06:25:41;98337.41;;;3.68;100.00
21638;BME280;10980;49.596;6.142;2023-03-15T06:29:03;98349.41;;;3.72;100.00
21638;BME280;10980;49.596;6.142;2023-03-15T06:32:26;98341.28;;;3.62;100.00
21638;BME280;10980;49.596;6.142;2023-03-15T06:35:49;98349.28;;;3.87;100.00
21638;BME280;10980;49.596;6.142;2023-03-15T06:39:12;98351.19;;;3.98;100.00
21638;BME280;10980;49.596;6.142;2023-03-15T06:42:34;98346.19;;;4.08;100.00
21638;BME280;10980;49.596;6.142;2023-03-15T06:45:58;98359.38;;;4.21;100.00
21638;BME280;10980;49.596;6.142;2023-03-15T06:49:21;98357.69;;;4.19;100.00
21638;BME280;10980;49.596;6.142;2023-03-15T06:52:43;98358.03;;;4.28;100.00
21638;BME280;10980;49.596;6.142;2023-03-15T06:56:05;98367.06;;;4.24;100.00
21638;BME280;10980;49.596;6.142;2023-03-15T06:59:27;98371.69;;;4.20;100.00
21638;BME280;10980;49.596;6.142;2023-03-15T07:02:49;98375.56;;;4.14;100.00
21638;BME280;10980;49.596;6.142;2023-03-15T07:06:11;98373.34;;;4.08;100.00
21638;BME280;10980;49.596;6.142;2023-03-15T07:09:33;98377.56;;;4.11;100.00
21638;BME280;10980;49.596;6.142;2023-03-15T07:12:55;98373.06;;;4.26;100.00
21638;BME280;10980;49.596;6.142;2023-03-15T07:16:17;98384.91;;;4.33;100.00
21638;BME280;10980;49.596;6.142;2023-03-15T07:19:39;98380.41;;;4.47;100.00
21638;BME280;10980;49.596;6.142;2023-03-15T07:23:14;98379.97;;;4.54;100.00
21638;BME280;10980;49.596;6.142;2023-03-15T07:26:36;98378.41;;;4.51;100.00
21638;BME280;10980;49.596;6.142;2023-03-15T07:29:58;98384.19;;;4.56;100.00
21638;BME280;10980;49.596;6.142;2023-03-15T07:33:29;98383.88;;;4.61;100.00
21638;BME280;10980;49.596;6.142;2023-03-15T07:36:51;98379.16;;;4.78;100.00
21638;BME280;10980;49.596;6.142;2023-03-15T07:40:38;98370.63;;;5.00;100.00
21638;BME280;10980;49.596;6.142;2023-03-15T07:44:00;98368.84;;;5.01;100.00
21638;BME280;10980;49.596;6.142;2023-03-15T07:47:22;98375.03;;;5.38;100.00
21638;BME280;10980;49.596;6.142;2023-03-15T07:50:45;98389.22;;;5.48;100.00
21638;BME280;10980;49.596;6.142;2023-03-15T07:54:14;98407.25;;;5.67;100.00
21638;BME280;10980;49.596;6.142;2023-03-15T07:57:36;98415.22;;;5.78;100.00
21638;BME280;10980;49.596;6.142;2023-03-15T08:00:58;98420.91;;;6.21;100.00
21638;BME280;10980;49.596;6.142;2023-03-15T08:04:20;98424.22;;;6.36;100.00
21638;BME280;10980;49.596;6.142;2023-03-15T08:07:45;98415.31;;;6.26;100.00
21638;BME280;10980;49.596;6.142;2023-03-15T08:11:07;98424.81;;;5.92;100.00
21638;BME280;10980;49.596;6.142;2023-03-15T08:14:33;98422.13;;;5.68;100.00
21638;BME280;10980;49.596;6.142;2023-03-15T08:17:59;98431.53;;;5.47;100.00
21638;BME280;10980;49.596;6.142;2023-03-15T08:21:22;98436.91;;;5.32;100.00
21638;BME280;10980;49.596;6.142;2023-03-15T08:24:44;98450.31;;;5.29;100.00
21638;BME280;10980;49.596;6.142;2023-03-15T08:28:06;98458.34;;;5.28;100.00
21638;BME280;10980;49.596;6.142;2023-03-15T08:31:30;98467.28;;;5.25;100.00
21638;BME280;10980;49.596;6.142;2023-03-15T08:34:53;98469.00;;;5.52;100.00
21638;BME280;10980;49.596;6.142;2023-03-15T08:38:16;98470.44;;;5.68;100.00
21638;BME280;10980;49.596;6.142;2023-03-15T08:41:43;98471.19;;;6.20;100.00
21638;BME280;10980;49.596;6.142;2023-03-15T08:45:08;98479.56;;;6.62;100.00
21638;BME280;10980;49.596;6.142;2023-03-15T08:48:30;98484.13;;;6.60;100.00
21638;BME280;10980;49.596;6.142;2023-03-15T08:51:54;98477.94;;;6.72;100.00
21638;BME280;10980;49.596;6.142;2023-03-15T08:55:16;98491.78;;;7.22;100.00
21638;BME280;10980;49.596;6.142;2023-03-15T08:58:38;98499.78;;;7.55;100.00
21638;BME280;10980;49.596;6.142;2023-03-15T09:02:00;98498.09;;;7.54;100.00
21638;BME280;10980;49.596;6.142;2023-03-15T09:05:24;98497.38;;;7.97;100.00
21638;BME280;10980;49.596;6.142;2023-03-15T09:08:46;98497.13;;;8.11;100.00
21638;BME280;10980;49.596;6.142;2023-03-15T09:12:15;98509.34;;;8.68;100.00
21638;BME280;10980;49.596;6.142;2023-03-15T09:15:38;98505.97;;;8.66;100.00
21638;BME280;10980;49.596;6.142;2023-03-15T09:19:07;98519.00;;;8.58;100.00
21638;BME280;10980;49.596;6.142;2023-03-15T09:22:29;98518.53;;;9.17;100.00
21638;BME280;10980;49.596;6.142;2023-03-15T09:26:00;98516.34;;;9.43;100.00
21638;BME280;10980;49.596;6.142;2023-03-15T09:29:22;98527.59;;;8.82;100.00
21638;BME280;10980;49.596;6.142;2023-03-15T09:32:44;98521.06;;;8.43;100.00
21638;BME280;10980;49.596;6.142;2023-03-15T09:36:07;98523.50;;;8.24;100.00
21638;BME280;10980;49.596;6.142;2023-03-15T09:39:31;98527.34;;;8.42;100.00
21638;BME280;10980;49.596;6.142;2023-03-15T09:43:39;98534.31;;;8.43;100.00
21638;BME280;10980;49.596;6.142;2023-03-15T09:51:51;98536.03;;;9.92;100.00
21638;BME280;10980;49.596;6.142;2023-03-15T09:55:27;98535.44;;;10.49;100.00
21638;BME280;10980;49.596;6.142;2023-03-15T09:58:54;98534.06;;;9.84;100.00
21638;BME280;10980;49.596;6.142;2023-03-15T10:02:28;98545.19;;;9.78;100.00
21638;BME280;10980;49.596;6.142;2023-03-15T10:05:59;98547.97;;;10.07;100.00
21638;BME280;10980;49.596;6.142;2023-03-15T10:09:27;98544.47;;;9.76;100.00
21638;BME280;10980;49.596;6.142;2023-03-15T10:13:21;98555.03;;;9.66;100.00
21638;BME280;10980;49.596;6.142;2023-03-15T10:16:49;98555.94;;;9.14;100.00
21638;BME280;10980;49.596;6.142;2023-03-15T10:20:28;98553.31;;;9.55;100.00
21638;BME280;10980;49.596;6.142;2023-03-15T10:23:54;98555.31;;;10.45;100.00
21638;BME280;10980;49.596;6.142;2023-03-15T10:27:20;98547.47;;;10.53;100.00
21638;BME280;10980;49.596;6.142;2023-03-15T10:30:49;98559.16;;;11.00;100.00
21638;BME280;10980;49.596;6.142;2023-03-15T10:34:14;98557.91;;;10.95;100.00
21638;BME280;10980;49.596;6.142;2023-03-15T10:37:37;98557.63;;;10.79;100.00
21638;BME280;10980;49.596;6.142;2023-03-15T10:40:59;98553.00;;;10.00;100.00
21638;BME280;10980;49.596;6.142;2023-03-15T10:44:26;98558.78;;;9.64;100.00
21638;BME280;10980;49.596;6.142;2023-03-15T10:47:49;98554.97;;;9.56;100.00
21638;BME280;10980;49.596;6.142;2023-03-15T10:51:42;98551.66;;;9.64;100.00
21638;BME280;10980;49.596;6.142;2023-03-15T10:55:15;98560.59;;;9.84;100.00
21638;BME280;10980;49.596;6.142;2023-03-15T10:58:47;98558.97;;;9.93;100.00
21638;BME280;10980;49.596;6.142;2023-03-15T11:02:28;98561.47;;;10.45;100.00
21638;BME280;10980;49.596;6.142;2023-03-15T11:05:54;98559.31;;;10.99;100.00
21638;BME280;10980;49.596;6.142;2023-03-15T11:09:19;98568.00;;;11.40;100.00
21638;BME280;10980;49.596;6.142;2023-03-15T11:13:08;98564.66;;;11.28;100.00
21638;BME280;10980;49.596;6.142;2023-03-15T11:16:34;98568.53;;;11.72;100.00
21638;BME280;10980;49.596;6.142;2023-03-15T11:20:27;98565.63;;;12.77;100.00
21638;BME280;10980;49.596;6.142;2023-03-15T11:23:53;98563.03;;;13.30;94.27
21638;BME280;10980;49.596;6.142;2023-03-15T11:27:22;98563.66;;;13.42;89.20
21638;BME280;10980;49.596;6.142;2023-03-15T11:30:46;98572.56;;;12.70;88.73
21638;BME280;10980;49.596;6.142;2023-03-15T11:34:36;98582.59;;;11.35;96.78
21638;BME280;10980;49.596;6.142;2023-03-15T11:38:20;98598.50;;;10.78;100.00
21638;BME280;10980;49.596;6.142;2023-03-15T11:41:56;98583.00;;;10.52;100.00
21638;BME280;10980;49.596;6.142;2023-03-15T11:45:59;98589.72;;;9.95;100.00
21638;BME280;10980;49.596;6.142;2023-03-15T11:49:55;98595.56;;;9.89;100.00
21638;BME280;10980;49.596;6.142;2023-03-15T11:53:20;98584.72;;;10.23;100.00
21638;BME280;10980;49.596;6.142;2023-03-15T11:57:02;98587.75;;;11.08;100.00
21638;BME280;10980;49.596;6.142;2023-03-15T12:08:14;98598.00;;;11.03;100.00
21638;BME280;10980;49.596;6.142;2023-03-15T12:11:45;98597.16;;;11.41;100.00
21638;BME280;10980;49.596;6.142;2023-03-15T12:19:09;98595.06;;;12.30;88.90
21638;BME280;10980;49.596;6.142;2023-03-15T12:22:32;98584.78;;;12.63;80.67
21638;BME280;10980;49.596;6.142;2023-03-15T12:26:42;98581.22;;;12.99;77.14
21638;BME280;10980;49.596;6.142;2023-03-15T12:30:17;98573.78;;;12.75;75.66
21638;BME280;10980;49.596;6.142;2023-03-15T12:34:03;98577.59;;;12.73;76.80
21638;BME280;10980;49.596;6.142;2023-03-15T12:37:47;98581.88;;;12.29;77.63
21638;BME280;10980;49.596;6.142;2023-03-15T12:41:48;98601.66;;;10.62;98.83
21638;BME280;10980;49.596;6.142;2023-03-15T12:49:05;98605.72;;;8.45;100.00
21638;BME280;10980;49.596;6.142;2023-03-15T12:52:40;98609.69;;;8.28;100.00
21638;BME280;10980;49.596;6.142;2023-03-15T12:56:29;98600.69;;;8.42;100.00
21638;BME280;10980;49.596;6.142;2023-03-15T13:00:09;98596.81;;;8.12;100.00
21638;BME280;10980;49.596;6.142;2023-03-15T13:03:34;98605.72;;;8.45;100.00
21638;BME280;10980;49.596;6.142;2023-03-15T13:07:23;98596.03;;;8.77;100.00
21638;BME280;10980;49.596;6.142;2023-03-15T13:11:14;98593.81;;;8.50;100.00
21638;BME280;10980;49.596;6.142;2023-03-15T13:14:53;98590.09;;;8.42;100.00
21638;BME280;10980;49.596;6.142;2023-03-15T13:18:22;98586.22;;;8.57;100.00
21638;BME280;10980;49.596;6.142;2023-03-15T13:25:43;98577.22;;;8.91;100.00
21638;BME280;10980;49.596;6.142;2023-03-15T13:29:16;98574.53;;;9.03;100.00
21638;BME280;10980;49.596;6.142;2023-03-15T13:32:42;98566.53;;;9.14;96.83
21638;BME280;10980;49.596;6.142;2023-03-15T13:36:12;98572.34;;;9.40;97.82
21638;BME280;10980;49.596;6.142;2023-03-15T13:39:52;98553.84;;;9.80;95.77
21638;BME280;10980;49.596;6.142;2023-03-15T13:43:14;98559.63;;;9.85;91.73
21638;BME280;10980;49.596;6.142;2023-03-15T13:46:35;98554.63;;;9.92;86.35
21638;BME280;10980;49.596;6.142;2023-03-15T13:49:58;98549.16;;;10.14;82.88
21638;BME280;10980;49.596;6.142;2023-03-15T13:53:24;98542.03;;;10.14;81.15
21638;BME280;10980;49.596;6.142;2023-03-15T13:57:19;98543.78;;;10.35;78.26
21638;BME280;10980;49.596;6.142;2023-03-15T14:00:58;98552.22;;;10.50;77.50
21638;BME280;10980;49.596;6.142;2023-03-15T14:04:24;98561.28;;;10.37;72.22
21638;BME280;10980;49.596;6.142;2023-03-15T14:07:48;98562.53;;;10.33;70.44
21638;BME280;10980;49.596;6.142;2023-03-15T14:11:32;98559.06;;;10.42;73.14
21638;BME280;10980;49.596;6.142;2023-03-15T14:14:58;98560.22;;;10.19;74.47
21638;BME280;10980;49.596;6.142;2023-03-15T14:18:28;98563.81;;;10.39;75.92
21638;BME280;10980;49.596;6.142;2023-03-15T14:21:56;98565.47;;;10.40;73.15
21638;BME280;10980;49.596;6.142;2023-03-15T14:25:21;98564.25;;;10.44;70.04
21638;BME280;10980;49.596;6.142;2023-03-15T14:28:57;98568.75;;;10.53;70.85
21638;BME280;10980;49.596;6.142;2023-03-15T14:32:29;98567.66;;;10.65;69.47
21638;BME280;10980;49.596;6.142;2023-03-15T14:35:57;98578.91;;;10.79;67.56
21638;BME280;10980;49.596;6.142;2023-03-15T14:39:27;98580.00;;;10.86;64.23
21638;BME280;10980;49.596;6.142;2023-03-15T14:42:50;98588.59;;;10.89;66.86
21638;BME280;10980;49.596;6.142;2023-03-15T14:46:12;98593.47;;;10.94;69.69
21638;BME280;10980;49.596;6.142;2023-03-15T14:49:34;98591.25;;;10.99;67.55
21638;BME280;10980;49.596;6.142;2023-03-15T14:52:57;98601.03;;;10.89;66.15
21638;BME280;10980;49.596;6.142;2023-03-15T14:56:19;98603.44;;;10.92;66.57
21638;BME280;10980;49.596;6.142;2023-03-15T14:59:41;98601.50;;;10.23;63.76
21638;BME280;10980;49.596;6.142;2023-03-15T15:03:14;98605.69;;;10.56;66.51
21638;BME280;10980;49.596;6.142;2023-03-15T15:06:38;98610.22;;;10.65;69.75
21638;BME280;10980;49.596;6.142;2023-03-15T15:09:59;98606.03;;;10.72;71.07
21638;BME280;10980;49.596;6.142;2023-03-15T15:13:26;98610.16;;;10.86;71.11
21638;BME280;10980;49.596;6.142;2023-03-15T15:16:48;98603.44;;;11.01;69.70
21638;BME280;10980;49.596;6.142;2023-03-15T15:20:11;98599.09;;;10.91;72.94
21638;BME280;10980;49.596;6.142;2023-03-15T15:23:38;98596.34;;;10.62;71.10
21638;BME280;10980;49.596;6.142;2023-03-15T15:27:19;98598.53;;;10.16;72.84
21638;BME280;10980;49.596;6.142;2023-03-15T15:30:41;98588.31;;;9.91;75.07
21638;BME280;10980;49.596;6.142;2023-03-15T15:34:03;98587.66;;;9.78;75.98
21638;BME280;10980;49.596;6.142;2023-03-15T15:37:31;98581.22;;;9.71;78.42
21638;BME280;10980;49.596;6.142;2023-03-15T15:40:53;98591.88;;;9.60;81.69
21638;BME280;10980;49.596;6.142;2023-03-15T15:44:19;98593.38;;;9.52;82.74
21638;BME280;10980;49.596;6.142;2023-03-15T15:47:42;98589.53;;;9.45;85.06
21638;BME280;10980;49.596;6.142;2023-03-15T15:51:22;98582.09;;;9.39;85.79
21638;BME280;10980;49.596;6.142;2023-03-15T15:54:47;98583.78;;;9.40;84.76
21638;BME280;10980;49.596;6.142;2023-03-15T15:58:11;98575.56;;;9.43;87.24
21638;BME280;10980;49.596;6.142;2023-03-15T16:01:33;98574.59;;;9.44;86.45
21638;BME280;10980;49.596;6.142;2023-03-15T16:04:55;98582.09;;;9.39;86.00
21638;BME280;10980;49.596;6.142;2023-03-15T16:08:24;98584.63;;;9.41;87.95
21638;BME280;10980;49.596;6.142;2023-03-15T16:11:52;98585.72;;;9.38;85.40
21638;BME280;10980;49.596;6.142;2023-03-15T16:15:17;98585.97;;;9.35;86.63
21638;BME280;10980;49.596;6.142;2023-03-15T16:18:42;98583.13;;;9.27;88.21
21638;BME280;10980;49.596;6.142;2023-03-15T16:22:06;98584.59;;;9.20;89.70
21638;BME280;10980;49.596;6.142;2023-03-15T16:25:35;98587.00;;;9.23;89.01
21638;BME280;10980;49.596;6.142;2023-03-15T16:29:00;98584.13;;;9.15;91.51
21638;BME280;10980;49.596;6.142;2023-03-15T16:32:25;98593.59;;;8.96;90.64
21638;BME280;10980;49.596;6.142;2023-03-15T16:36:20;98593.63;;;8.85;93.29
21638;BME280;10980;49.596;6.142;2023-03-15T16:39:48;98589.19;;;8.75;92.48
21638;BME280;10980;49.596;6.142;2023-03-15T16:43:14;98581.38;;;8.62;88.08
21638;BME280;10980;49.596;6.142;2023-03-15T16:46:43;98574.19;;;8.53;89.20
21638;BME280;10980;49.596;6.142;2023-03-15T16:50:07;98583.81;;;8.43;91.39
21638;BME280;10980;49.596;6.142;2023-03-15T16:53:30;98577.22;;;8.37;92.57
21638;BME280;10980;49.596;6.142;2023-03-15T16:56:54;98575.25;;;8.28;94.29
21638;BME280;10980;49.596;6.142;2023-03-15T17:00:18;98584.66;;;8.10;91.93
21638;BME280;10980;49.596;6.142;2023-03-15T17:03:41;98582.38;;;8.05;93.72
21638;BME280;10980;49.596;6.142;2023-03-15T17:07:03;98581.63;;;8.14;93.14
21638;BME280;10980;49.596;6.142;2023-03-15T17:10:30;98593.81;;;8.05;91.79
21638;BME280;10980;49.596;6.142;2023-03-15T17:14:03;98600.41;;;8.11;90.15
21638;BME280;10980;49.596;6.142;2023-03-15T17:17:28;98596.19;;;7.97;91.17
21638;BME280;10980;49.596;6.142;2023-03-15T17:20:54;98594.16;;;7.90;91.14
21638;BME280;10980;49.596;6.142;2023-03-15T17:24:16;98605.66;;;7.66;94.04
21638;BME280;10980;49.596;6.142;2023-03-15T17:27:44;98601.88;;;7.46;97.03
21638;BME280;10980;49.596;6.142;2023-03-15T17:31:13;98600.25;;;7.33;99.25
21638;BME280;10980;49.596;6.142;2023-03-15T17:34:47;98600.63;;;7.39;100.00
21638;BME280;10980;49.596;6.142;2023-03-15T17:38:18;98601.47;;;7.40;100.00
21638;BME280;10980;49.596;6.142;2023-03-15T17:41:47;98611.06;;;7.30;100.00
21638;BME280;10980;49.596;6.142;2023-03-15T17:45:25;98604.47;;;7.11;100.00
21638;BME280;10980;49.596;6.142;2023-03-15T17:48:49;98608.25;;;6.96;100.00
21638;BME280;10980;49.596;6.142;2023-03-15T17:52:14;98615.69;;;6.91;100.00
21638;BME280;10980;49.596;6.142;2023-03-15T17:55:37;98617.97;;;6.96;100.00
21638;BME280;10980;49.596;6.142;2023-03-15T17:59:00;98619.78;;;6.95;100.00
21638;BME280;10980;49.596;6.142;2023-03-15T18:02:22;98614.41;;;6.84;100.00
21638;BME280;10980;49.596;6.142;2023-03-15T18:05:45;98624.22;;;6.71;100.00
21638;BME280;10980;49.596;6.142;2023-03-15T18:09:12;98625.91;;;6.72;100.00
21638;BME280;10980;49.596;6.142;2023-03-15T18:12:37;98628.31;;;6.75;100.00
21638;BME280;10980;49.596;6.142;2023-03-15T18:15:59;98624.22;;;6.71;100.00
21638;BME280;10980;49.596;6.142;2023-03-15T18:19:21;98626.94;;;6.69;100.00
21638;BME280;10980;49.596;6.142;2023-03-15T18:22:44;98647.03;;;6.72;100.00
21638;BME280;10980;49.596;6.142;2023-03-15T18:26:06;98635.53;;;6.73;100.00
21638;BME280;10980;49.596;6.142;2023-03-15T18:29:31;98642.28;;;6.64;100.00
21638;BME280;10980;49.596;6.142;2023-03-15T18:32:53;98650.44;;;6.61;100.00
21638;BME280;10980;49.596;6.142;2023-03-15T18:36:17;98645.19;;;6.48;100.00
21638;BME280;10980;49.596;6.142;2023-03-15T18:39:39;98652.81;;;6.40;100.00
21638;BME280;10980;49.596;6.142;2023-03-15T18:43:01;98654.28;;;6.32;100.00
21638;BME280;10980;49.596;6.142;2023-03-15T18:46:25;98657.03;;;6.30;100.00
21638;BME280;10980;49.596;6.142;2023-03-15T18:49:49;98649.63;;;6.35;100.00
21638;BME280;10980;49.596;6.142;2023-03-15T18:53:16;98651.13;;;6.26;100.00
21638;BME280;10980;49.596;6.142;2023-03-15T18:56:39;98651.75;;;6.17;100.00